Time;durP1;ratioP1;P1;durP2;ratioP2;P2;SDS_P1;SDS_P2;PMS_P1;PMS_P2;Temp;Humidity;BMP_temperature;BMP_pressure;BME280_temperature;BME280_humidity;BME280_pressure;Samples;Min_cycle;Max_cycle;Signal;HPM_P1;HPM_P2
2021/12/11 00:01:37;;;;;;;36.28;16.65;;;;;;;1.09;95.90;100452.94;5024466;28;20021;-73
2021/12/11 00:04:07;;;;;;;41.95;17.75;;;;;;;1.07;95.82;100457.47;5036059;28;20034;-74
2021/12/11 00:06:38;;;;;;;33.70;16.25;;;;;;;1.05;95.70;100459.34;5038549;28;20017;-71
2021/12/11 00:09:13;;;;;;;40.33;16.95;;;;;;;1.02;95.67;100460.31;5012825;28;20442;-74
2021/12/11 00:11:41;;;;;;;40.72;17.70;;;;;;;0.99;95.75;100471.19;5026150;28;20051;-70
2021/12/11 00:14:09;;;;;;;44.65;17.25;;;;;;;0.99;95.96;100476.53;5026311;28;20040;-74
2021/12/11 00:16:37;;;;;;;32.88;15.70;;;;;;;0.95;95.69;100482.94;5029275;28;20433;-74
2021/12/11 00:19:09;;;;;;;33.22;16.65;;;;;;;0.91;95.64;100485.78;5022540;28;20037;-74
2021/12/11 00:21:35;;;;;;;33.40;15.77;;;;;;;0.88;95.42;100496.63;5029659;28;20087;-71
2021/12/11 00:24:06;;;;;;;33.08;14.93;;;;;;;0.84;95.30;100495.88;5028533;28;20405;-74
2021/12/11 00:26:39;;;;;;;33.90;15.73;;;;;;;0.80;95.43;100498.75;5027353;28;20357;-71
2021/12/11 00:29:06;;;;;;;30.58;15.15;;;;;;;0.76;95.27;100512.22;5028786;28;20029;-74
2021/12/11 00:31:34;;;;;;;34.55;15.82;;;;;;;0.75;95.62;100518.53;5027474;28;20102;-74
2021/12/11 00:34:00;;;;;;;37.03;17.15;;;;;;;0.73;95.38;100517.69;5027270;28;20025;-74
2021/12/11 00:36:32;;;;;;;30.80;14.60;;;;;;;0.70;95.25;100524.94;5029027;28;20036;-74
2021/12/11 00:39:07;;;;;;;33.75;15.73;;;;;;;0.69;95.28;100520.53;5019028;28;20029;-74
2021/12/11 00:41:34;;;;;;;37.47;16.20;;;;;;;0.69;95.67;100526.75;5012930;28;20048;-74
2021/12/11 00:44:01;;;;;;;34.42;17.75;;;;;;;0.68;95.78;100527.69;5024833;28;20041;-73
2021/12/11 00:46:28;;;;;;;42.40;17.42;;;;;;;0.65;95.84;100530.50;5027917;28;20067;-73
2021/12/11 00:49:05;;;;;;;39.90;17.80;;;;;;;0.64;95.51;100542.13;5013575;28;20493;-73
2021/12/11 00:51:30;;;;;;;35.20;16.20;;;;;;;0.62;95.73;100540.44;5028525;28;20021;-74
2021/12/11 00:53:58;;;;;;;43.13;18.55;;;;;;;0.61;95.75;100547.59;5028062;28;20108;-74
2021/12/11 00:56:27;;;;;;;43.20;16.95;;;;;;;0.60;95.98;100551.19;5025488;28;20017;-73
2021/12/11 00:58:55;;;;;;;37.58;16.90;;;;;;;0.56;95.66;100551.34;5028514;28;20029;-74
2021/12/11 01:01:27;;;;;;;44.05;19.33;;;;;;;0.57;95.66;100563.81;5025816;28;20437;-74
2021/12/11 01:04:07;;;;;;;33.90;15.48;;;;;;;0.50;95.48;100564.03;5023286;28;20108;-71
2021/12/11 01:06:40;;;;;;;45.85;19.08;;;;;;;0.45;95.97;100570.47;5028096;28;20017;-75
2021/12/11 01:09:16;;;;;;;44.75;18.92;;;;;;;0.45;96.06;100576.69;5027927;28;20037;-75
2021/12/11 01:11:47;;;;;;;37.63;16.88;;;;;;;0.43;95.45;100580.38;5023605;28;20052;-76
2021/12/11 01:14:30;;;;;;;42.90;17.63;;;;;;;0.39;96.08;100581.41;5020219;28;20029;-71
2021/12/11 01:17:03;;;;;;;33.95;14.75;;;;;;;0.32;95.34;100579.84;5028498;28;20048;-71
2021/12/11 01:19:36;;;;;;;46.17;18.70;;;;;;;0.26;95.90;100580.94;5023837;28;20033;-75
2021/12/11 01:22:10;;;;;;;34.50;15.18;;;;;;;0.25;95.36;100595.25;5028431;28;20109;-70
2021/12/11 01:24:44;;;;;;;35.92;15.73;;;;;;;0.23;95.14;100599.75;5026932;28;20033;-74
2021/12/11 01:27:20;;;;;;;30.27;14.15;;;;;;;0.17;95.08;100606.19;5025045;28;20045;-71
2021/12/11 01:29:47;;;;;;;38.95;14.75;;;;;;;0.14;95.36;100613.44;5027641;28;20033;-76
2021/12/11 01:32:14;;;;;;;36.63;16.42;;;;;;;0.13;95.97;100630.44;5026535;28;20017;-70
2021/12/11 01:34:40;;;;;;;30.90;14.40;;;;;;;0.10;94.94;100636.78;5024840;28;20250;-75
2021/12/11 01:37:07;;;;;;;35.97;15.30;;;;;;;0.07;95.69;100638.66;5025696;28;20108;-74
2021/12/11 01:39:37;;;;;;;40.03;15.90;;;;;;;0.09;95.32;100647.50;5025055;28;20049;-75
2021/12/11 01:42:10;;;;;;;32.75;14.60;;;;;;;0.07;95.20;100655.59;5009091;28;20080;-74
2021/12/11 01:44:38;;;;;;;31.50;14.10;;;;;;;0.04;94.60;100660.16;5018599;28;20030;-76
2021/12/11 01:47:09;;;;;;;30.65;13.90;;;;;;;0.04;94.89;100660.16;5018403;28;20021;-75
2021/12/11 01:49:36;;;;;;;38.03;16.45;;;;;;;0.03;95.10;100663.75;5013354;28;20029;-74
2021/12/11 01:52:27;;;;;;;35.97;15.80;;;;;;;0.04;94.97;100676.19;5027537;28;20032;-76
2021/12/11 01:54:52;;;;;;;35.83;14.23;;;;;;;0.01;94.79;100684.31;5026246;28;20228;-71
2021/12/11 01:57:24;;;;;;;32.00;13.63;;;;;;;-0.01;95.00;100687.91;5025448;28;20092;-75
2021/12/11 01:59:57;;;;;;;34.70;15.77;;;;;;;-0.05;95.01;100693.41;5026975;28;20033;-72
2021/12/11 02:02:34;;;;;;;30.13;13.68;;;;;;;-0.08;94.65;100714.91;5020597;28;20071;-75
2021/12/11 02:04:59;;;;;;;30.83;14.68;;;;;;;-0.09;94.78;100721.19;5018087;28;20458;-75
2021/12/11 02:07:29;;;;;;;39.78;14.45;;;;;;;-0.12;94.62;100715.91;5026900;28;20092;-75
2021/12/11 02:09:58;;;;;;;30.13;14.48;;;;;;;-0.13;94.75;100717.72;5023792;28;20548;-74
2021/12/11 02:12:32;;;;;;;33.30;15.35;;;;;;;-0.14;95.01;100715.06;5022266;28;20021;-74
2021/12/11 02:15:00;;;;;;;32.85;13.52;;;;;;;-0.13;95.15;100717.72;5012914;28;20543;-72
2021/12/11 02:17:31;;;;;;;31.98;15.20;;;;;;;-0.13;95.04;100720.38;5025581;28;20028;-72
2021/12/11 02:19:59;;;;;;;34.05;14.52;;;;;;;-0.13;95.15;100725.75;5024075;28;20021;-71
2021/12/11 02:22:31;;;;;;;29.95;14.18;;;;;;;-0.16;94.78;100733.84;5028000;28;20485;-72
2021/12/11 02:25:03;;;;;;;29.25;14.32;;;;;;;-0.16;94.83;100730.28;5021535;28;20435;-75
2021/12/11 02:27:33;;;;;;;30.20;14.38;;;;;;;-0.17;94.81;100737.44;5026961;28;20501;-75
2021/12/11 02:30:20;;;;;;;30.55;14.02;;;;;;;-0.16;94.65;100744.53;5022778;28;20033;-76
2021/12/11 02:33:07;;;;;;;34.38;14.35;;;;;;;-0.17;94.82;100747.25;5023344;28;20481;-74
2021/12/11 02:36:08;;;;;;;27.77;13.85;;;;;;;-0.16;94.80;100759.69;5014510;28;20036;-75
2021/12/11 02:38:43;;;;;;;25.85;13.23;;;;;;;-0.15;94.85;100766.78;5031314;28;20064;-74
2021/12/11 02:41:21;;;;;;;31.83;13.70;;;;;;;-0.16;94.83;100767.72;5031020;28;20041;-73
2021/12/11 02:43:58;;;;;;;29.63;12.93;;;;;;;-0.16;94.83;100765.91;5024433;28;20505;-72
2021/12/11 02:46:52;;;;;;;28.08;12.70;;;;;;;-0.15;94.96;100765.00;5022630;28;20385;-70
2021/12/11 02:49:27;;;;;;;29.27;13.63;;;;;;;-0.13;94.88;100770.31;5013088;28;20056;-76
2021/12/11 02:51:59;;;;;;;30.38;14.48;;;;;;;-0.10;94.92;100781.78;5025420;28;20035;-73
2021/12/11 02:54:39;;;;;;;34.95;14.65;;;;;;;-0.10;94.88;100787.13;5030822;28;20068;-72
2021/12/11 02:57:10;;;;;;;30.70;13.85;;;;;;;-0.09;95.00;100788.03;5028774;28;20277;-74
2021/12/11 02:59:41;;;;;;;28.85;12.95;;;;;;;-0.08;95.06;100781.75;5029738;28;20033;-74
2021/12/11 03:02:17;;;;;;;25.23;11.48;;;;;;;-0.08;95.08;100784.41;5018155;28;20029;-75
2021/12/11 03:04:51;;;;;;;24.58;12.38;;;;;;;-0.10;94.85;100788.91;5018339;28;20033;-71
2021/12/11 03:07:23;;;;;;;27.73;12.77;;;;;;;-0.07;95.18;100799.53;5026823;28;20076;-74
2021/12/11 03:09:53;;;;;;;29.13;13.63;;;;;;;-0.09;94.91;100804.94;5030428;28;20041;-76
2021/12/11 03:12:21;;;;;;;26.42;13.30;;;;;;;-0.06;94.88;100809.31;5029051;28;20021;-75
2021/12/11 03:14:46;;;;;;;28.30;13.23;;;;;;;-0.08;95.12;100805.81;5024946;28;20061;-74
2021/12/11 03:17:14;;;;;;;27.05;12.70;;;;;;;-0.07;95.14;100812.91;5016706;28;20045;-70
2021/12/11 03:19:42;;;;;;;30.13;13.45;;;;;;;-0.07;95.00;100821.78;5014217;28;20096;-71
2021/12/11 03:22:12;;;;;;;22.67;11.90;;;;;;;-0.05;95.02;100819.06;5029268;28;20137;-73
2021/12/11 03:24:37;;;;;;;31.38;13.68;;;;;;;-0.05;95.08;100822.66;5043900;28;20099;-73
2021/12/11 03:27:04;;;;;;;26.05;12.52;;;;;;;-0.08;94.77;100825.41;5029476;28;20014;-74
2021/12/11 03:29:30;;;;;;;27.35;12.60;;;;;;;-0.08;94.88;100829.88;5029348;28;20482;-74
2021/12/11 03:31:56;;;;;;;32.80;13.43;;;;;;;-0.08;95.13;100836.09;5027959;28;20039;-75
2021/12/11 03:34:24;;;;;;;32.03;16.42;;;;;;;-0.12;95.39;100821.06;5017328;28;20436;-75
2021/12/11 03:36:50;;;;;;;32.40;14.15;;;;;;;-0.13;94.79;100837.16;5030631;28;20112;-76
2021/12/11 03:39:20;;;;;;;34.95;14.48;;;;;;;-0.17;94.77;100839.03;5028764;28;20083;-74
2021/12/11 03:41:49;;;;;;;29.63;14.20;;;;;;;-0.16;95.08;100838.09;5029264;28;20040;-71
2021/12/11 03:44:15;;;;;;;27.42;14.07;;;;;;;-0.19;94.56;100839.97;5023756;28;20513;-76
2021/12/11 03:46:43;;;;;;;35.55;15.93;;;;;;;-0.23;95.06;100839.22;5021347;28;20377;-74
2021/12/11 03:49:14;;;;;;;32.30;13.57;;;;;;;-0.26;94.92;100845.50;5013809;28;20036;-74
2021/12/11 03:51:44;;;;;;;30.25;14.65;;;;;;;-0.29;95.03;100844.72;5025790;28;20449;-74
2021/12/11 03:54:13;;;;;;;40.10;16.40;;;;;;;-0.27;95.63;100850.91;5020421;28;20030;-73
2021/12/11 03:56:40;;;;;;;35.30;16.23;;;;;;;-0.29;95.49;100850.94;5018394;28;20452;-73
2021/12/11 03:59:10;;;;;;;35.45;15.00;;;;;;;-0.26;95.57;100848.19;5017376;28;20103;-71
2021/12/11 04:01:47;;;;;;;42.20;16.88;;;;;;;-0.22;95.64;100853.44;5017382;28;20044;-75
2021/12/11 04:04:36;;;;;;;32.30;14.68;;;;;;;-0.21;95.78;100856.06;5023650;28;20033;-70
2021/12/11 04:07:04;;;;;;;30.17;14.75;;;;;;;-0.19;95.40;100859.56;5018106;28;20087;-76
2021/12/11 04:09:30;;;;;;;31.20;13.38;;;;;;;-0.18;95.37;100861.34;5010415;28;20041;-76
2021/12/11 04:11:56;;;;;;;33.17;14.23;;;;;;;-0.18;95.36;100861.34;5029099;28;20021;-75
2021/12/11 04:14:29;;;;;;;28.67;13.48;;;;;;;-0.14;95.54;100867.47;5020381;28;20025;-73
2021/12/11 04:16:55;;;;;;;;;;;;;;;-0.09;94.98;100868.22;5023868;28;20101;-74
2021/12/11 04:19:21;;;;;;;33.42;13.98;;;;;;;-0.07;95.53;100880.63;5016115;28;20019;-75
2021/12/11 04:21:47;;;;;;;33.38;14.57;;;;;;;-0.01;95.77;100884.91;5021483;28;20026;-73
2021/12/11 04:24:15;;;;;;;37.47;15.40;;;;;;;0.02;95.98;100883.97;5029957;28;20037;-70
2021/12/11 04:26:41;;;;;;;39.03;16.15;;;;;;;0.07;95.98;100888.25;5025233;28;20052;-75
2021/12/11 04:29:07;;;;;;;37.00;15.45;;;;;;;0.13;95.89;100887.19;5028254;28;20068;-76
2021/12/11 04:31:35;;;;;;;31.45;14.70;;;;;;;0.18;95.94;100893.28;5028866;28;20021;-75
2021/12/11 04:34:06;;;;;;;36.97;15.93;;;;;;;0.21;95.81;100898.56;5014472;28;20540;-72
2021/12/11 04:36:37;;;;;;;39.40;16.58;;;;;;;0.25;95.71;100906.44;5029026;28;20025;-70
2021/12/11 04:39:08;;;;;;;41.75;15.15;;;;;;;0.29;96.11;100903.69;5010566;28;20160;-74
2021/12/11 04:41:44;;;;;;;41.88;16.77;;;;;;;0.30;96.23;100902.78;5037600;28;20451;-71
2021/12/11 04:44:15;;;;;;;31.42;14.63;;;;;;;0.33;96.25;100910.72;5017552;28;20036;-76
2021/12/11 04:46:40;;;;;;;37.33;14.93;;;;;;;0.36;96.17;100913.28;5039052;28;20030;-71
2021/12/11 04:49:15;;;;;;;43.03;15.35;;;;;;;0.39;96.04;100927.44;5019058;28;20067;-74
2021/12/11 04:51:59;;;;;;;28.60;14.15;;;;;;;0.42;95.56;100932.72;5024348;28;20378;-74
2021/12/11 05:05:24;;;;;;;31.92;14.85;;;;;;;0.53;96.25;100937.75;5023103;28;20041;-76
2021/12/11 05:08:24;;;;;;;32.38;14.10;;;;;;;0.55;96.02;100940.38;5028724;28;20408;-75
2021/12/11 05:11:02;;;;;;;42.47;15.60;;;;;;;0.58;96.19;100946.53;5024383;28;20034;-71
2021/12/11 05:13:29;;;;;;;36.05;14.48;;;;;;;0.60;96.47;100941.97;5026781;28;20037;-75
2021/12/11 05:15:58;;;;;;;32.83;14.05;;;;;;;0.63;96.30;100952.63;5026923;28;20056;-74
2021/12/11 05:18:27;;;;;;;34.22;15.80;;;;;;;0.66;96.56;100954.34;5015232;28;20026;-75
2021/12/11 05:20:58;;;;;;;38.22;15.75;;;;;;;0.67;96.67;100954.28;5027103;28;20036;-71
2021/12/11 05:23:24;;;;;;;38.03;17.30;;;;;;;0.70;96.75;100969.34;5013301;28;20068;-75
2021/12/11 05:25:50;;;;;;;44.15;16.63;;;;;;;0.75;97.04;100971.00;5016932;28;20029;-72
2021/12/11 05:28:16;;;;;;;42.33;16.70;;;;;;;0.84;97.36;100971.63;5024857;28;20527;-75
2021/12/11 05:30:46;;;;;;;37.63;16.77;;;;;;;0.90;97.46;100966.09;5026877;28;20422;-76
2021/12/11 05:33:12;;;;;;;49.72;18.15;;;;;;;0.93;97.44;100966.88;5021716;28;20025;-75
2021/12/11 05:35:39;;;;;;;45.28;17.10;;;;;;;0.96;97.34;100976.63;5026229;28;20048;-75
2021/12/11 05:38:06;;;;;;;42.95;17.75;;;;;;;0.95;97.27;100967.72;5026113;28;20477;-75
2021/12/11 05:40:33;;;;;;;43.65;16.55;;;;;;;0.97;97.31;100976.56;5014428;28;20065;-75
2021/12/11 05:42:59;;;;;;;43.95;16.63;;;;;;;0.97;97.46;100987.28;5015305;28;20041;-74
2021/12/11 05:45:24;;;;;;;37.45;15.88;;;;;;;0.99;97.18;100980.09;5014221;28;20040;-74
2021/12/11 05:47:52;;;;;;;42.63;17.13;;;;;;;1.04;97.36;100989.78;5018804;28;20022;-74
2021/12/11 05:50:23;;;;;;;42.65;16.60;;;;;;;1.06;97.42;100991.47;5027942;28;20040;-75
2021/12/11 05:52:50;;;;;;;37.80;16.08;;;;;;;1.11;97.54;100991.34;5023334;28;20036;-71
2021/12/11 05:55:18;;;;;;;43.72;16.88;;;;;;;1.11;97.33;100994.00;5023140;28;20300;-75
2021/12/11 05:57:50;;;;;;;42.88;16.80;;;;;;;1.13;97.61;100993.06;5019379;28;20021;-75
2021/12/11 06:00:19;;;;;;;39.55;16.23;;;;;;;1.16;97.36;100994.75;5022160;28;20052;-76
2021/12/11 06:02:44;;;;;;;40.58;16.98;;;;;;;1.20;97.52;100993.72;5017107;28;20034;-75
2021/12/11 06:05:10;;;;;;;47.97;16.17;;;;;;;1.20;97.60;100996.41;5027205;28;20091;-74
2021/12/11 06:07:37;;;;;;;39.80;16.75;;;;;;;1.18;97.57;100985.75;5027102;28;20013;-75
2021/12/11 06:10:09;;;;;;;43.75;17.67;;;;;;;1.22;97.74;100999.94;5027338;28;20036;-71
2021/12/11 06:12:35;;;;;;;42.55;17.38;;;;;;;1.25;97.53;101007.84;5025722;28;20030;-71
2021/12/11 06:15:00;;;;;;;42.33;17.48;;;;;;;1.25;97.53;101016.75;5025890;28;20083;-75
2021/12/11 06:17:30;;;;;;;46.22;17.15;;;;;;;1.28;97.97;101010.44;5026935;28;20022;-71
2021/12/11 06:19:57;;;;;;;44.38;17.05;;;;;;;1.29;97.64;101022.91;5025241;28;20037;-74
2021/12/11 06:22:25;;;;;;;38.58;15.98;;;;;;;1.30;97.68;101026.47;5022779;28;20026;-75
2021/12/11 06:24:55;;;;;;;39.85;16.27;;;;;;;1.29;97.52;101030.94;5023532;28;20029;-74
2021/12/11 06:27:22;;;;;;;39.53;17.17;;;;;;;1.29;97.73;101033.63;5025202;28;20032;-71
2021/12/11 06:29:48;;;;;;;38.05;15.98;;;;;;;1.31;97.62;101030.94;5026384;28;20457;-71
2021/12/11 06:32:13;;;;;;;41.97;18.38;;;;;;;1.34;97.78;101038.84;5026674;28;20026;-75
2021/12/11 06:34:39;;;;;;;40.40;17.83;;;;;;;1.38;97.98;101043.19;5023995;28;20481;-74
2021/12/11 06:37:07;;;;;;;45.33;17.13;;;;;;;1.41;98.00;101038.63;5026304;28;20488;-74
2021/12/11 06:39:33;;;;;;;52.55;19.35;;;;;;;1.45;97.95;101048.31;5025348;28;20227;-74
2021/12/11 06:42:01;;;;;;;49.20;18.25;;;;;;;1.47;98.00;101043.78;5021145;28;20171;-71
2021/12/11 06:44:27;;;;;;;51.97;19.90;;;;;;;1.51;97.96;101055.28;5015172;28;20033;-74
2021/12/11 06:46:54;;;;;;;41.35;18.70;;;;;;;1.52;98.08;101059.72;5020610;28;20029;-75
2021/12/11 06:49:20;;;;;;;49.53;19.42;;;;;;;1.53;97.95;101061.47;5014561;28;20029;-72
2021/12/11 06:51:46;;;;;;;48.05;18.48;;;;;;;1.57;98.11;101068.47;5020731;28;20035;-75
2021/12/11 06:54:11;;;;;;;56.05;22.13;;;;;;;1.65;98.27;101069.13;5015033;28;20693;-71
2021/12/11 06:56:39;;;;;;;65.32;22.48;;;;;;;1.71;98.56;101078.78;5020539;28;20025;-71
2021/12/11 06:59:05;;;;;;;61.38;22.65;;;;;;;1.77;98.49;101073.19;5023125;28;20101;-74
2021/12/11 07:01:31;;;;;;;54.40;21.45;;;;;;;1.81;98.41;101077.53;5019261;28;20041;-75
2021/12/11 07:03:59;;;;;;;67.82;26.50;;;;;;;1.87;98.29;101084.53;5025452;28;20037;-75
2021/12/11 07:06:26;;;;;;;54.95;23.25;;;;;;;1.89;98.31;101091.59;5026488;28;20032;-73
2021/12/11 07:08:53;;;;;;;58.42;22.88;;;;;;;1.93;98.61;101087.00;5008460;28;20046;-75
2021/12/11 07:11:18;;;;;;;66.45;23.88;;;;;;;1.98;98.83;101093.09;5018314;28;20036;-72
2021/12/11 07:13:44;;;;;;;58.42;23.80;;;;;;;2.01;98.77;101093.00;5023633;28;20037;-75
2021/12/11 07:16:10;;;;;;;63.88;25.63;;;;;;;2.06;98.71;101093.72;5041198;28;20397;-75
2021/12/11 07:18:36;;;;;;;58.65;23.35;;;;;;;2.09;98.58;101098.09;5017585;28;20024;-72
2021/12/11 07:21:03;;;;;;;59.42;24.58;;;;;;;2.09;98.80;101101.66;5029346;28;20033;-74
2021/12/11 07:23:28;;;;;;;57.33;24.05;;;;;;;2.10;98.68;101106.13;5027161;28;20052;-74
2021/12/11 07:26:02;;;;;;;62.08;25.70;;;;;;;2.13;98.73;101102.44;5029960;28;20029;-71
2021/12/11 07:28:28;;;;;;;55.78;23.38;;;;;;;2.16;98.81;101127.38;5028167;28;20075;-76
2021/12/11 07:30:57;;;;;;;56.30;22.17;;;;;;;2.18;98.66;101121.94;5023407;28;20026;-71
2021/12/11 07:33:22;;;;;;;57.60;24.45;;;;;;;2.21;98.62;101122.72;5016216;28;20029;-72
2021/12/11 07:35:50;;;;;;;57.95;22.70;;;;;;;2.27;98.74;101135.06;5025333;28;20485;-74
2021/12/11 07:38:16;;;;;;;56.97;22.75;;;;;;;2.29;98.57;101126.03;5018981;28;20033;-71
2021/12/11 07:40:53;;;;;;;51.00;20.73;;;;;;;2.37;98.72;101131.13;5023624;28;20060;-74
2021/12/11 07:43:20;;;;;;;52.10;22.35;;;;;;;2.43;98.41;101130.94;5028486;28;20041;-75
2021/12/11 07:45:46;;;;;;;50.85;22.30;;;;;;;2.48;98.64;101139.72;5024312;28;20025;-75
2021/12/11 07:48:13;;;;;;;53.03;20.92;;;;;;;2.52;98.78;101138.69;5027944;28;20053;-75
2021/12/11 07:50:40;;;;;;;48.63;20.52;;;;;;;2.56;98.61;101147.47;5029629;28;20096;-75
2021/12/11 07:53:05;;;;;;;50.42;20.05;;;;;;;2.60;98.64;101149.13;5011538;28;20034;-74
2021/12/11 07:55:32;;;;;;;41.88;18.63;;;;;;;2.64;98.57;101147.22;5012984;28;20041;-75
2021/12/11 07:57:58;;;;;;;45.05;18.15;;;;;;;2.70;98.52;101160.44;5024215;28;20092;-74
2021/12/11 08:00:26;;;;;;;44.85;17.38;;;;;;;2.74;98.39;101167.47;5028492;28;20071;-74
2021/12/11 08:02:52;;;;;;;40.83;16.73;;;;;;;2.76;98.44;101165.63;5019853;28;20041;-71
2021/12/11 08:05:18;;;;;;;41.80;16.88;;;;;;;2.77;98.50;101159.31;5015793;28;20028;-74
2021/12/11 08:07:44;;;;;;;45.17;18.50;;;;;;;2.81;98.25;101169.00;5023188;28;20512;-75
2021/12/11 08:10:17;;;;;;;34.47;14.85;;;;;;;2.85;98.29;101175.16;5028644;28;20025;-73
2021/12/11 08:12:43;;;;;;;35.78;13.45;;;;;;;2.84;98.05;101186.81;5026386;28;20060;-75
2021/12/11 08:15:10;;;;;;;32.65;12.20;;;;;;;2.83;98.14;101180.56;5028306;28;20460;-72
2021/12/11 08:17:36;;;;;;;27.05;12.70;;;;;;;2.83;98.05;101191.31;5027855;28;20057;-75
2021/12/11 08:20:07;;;;;;;28.63;12.15;;;;;;;2.87;98.01;101184.91;5015071;28;20084;-74
2021/12/11 08:22:33;;;;;;;24.67;10.88;;;;;;;2.90;98.25;101195.56;5029500;28;20036;-74
2021/12/11 08:24:58;;;;;;;25.17;11.40;;;;;;;2.89;97.89;101193.81;5028646;28;20432;-75
2021/12/11 08:27:24;;;;;;;30.65;11.45;;;;;;;2.89;97.89;101204.56;5024534;28;20029;-74
2021/12/11 08:29:52;;;;;;;25.48;10.45;;;;;;;2.93;98.11;101210.69;5042531;28;20025;-74
2021/12/11 08:32:20;;;;;;;20.33;9.52;;;;;;;2.95;98.01;101220.47;5014080;28;20108;-71
2021/12/11 08:34:47;;;;;;;24.45;9.10;;;;;;;3.00;98.18;101222.97;5022894;28;20116;-74
2021/12/11 08:37:14;;;;;;;22.13;9.38;;;;;;;3.01;98.29;101217.53;5028919;28;20021;-74
2021/12/11 08:39:41;;;;;;;24.05;8.68;;;;;;;3.05;98.37;101227.25;5014611;28;20556;-71
2021/12/11 08:42:10;;;;;;;38.47;9.20;;;;;;;3.12;98.32;101235.09;5018492;28;20087;-71
2021/12/11 08:44:38;;;;;;;20.30;7.20;;;;;;;3.17;98.06;101249.25;5032499;28;20065;-74
2021/12/11 08:47:08;;;;;;;22.73;8.70;;;;;;;3.23;98.20;101241.00;5019533;28;20022;-74
2021/12/11 08:49:35;;;;;;;22.88;7.90;;;;;;;3.30;98.23;101242.50;5019262;28;20071;-71
2021/12/11 08:52:23;;;;;;;26.23;7.88;;;;;;;3.36;98.34;101250.38;5021238;28;20037;-75
2021/12/11 08:54:48;;;;;;;18.30;6.45;;;;;;;3.36;98.19;101252.16;5017181;28;20494;-75
2021/12/11 08:57:18;;;;;;;20.02;6.00;;;;;;;3.37;97.38;101262.00;5028102;28;20052;-74
2021/12/11 08:59:55;;;;;;;22.73;6.70;;;;;;;3.38;97.87;101261.06;5025915;28;20033;-75
2021/12/11 09:02:34;;;;;;;20.85;6.90;;;;;;;3.42;98.01;101270.78;5024795;28;20025;-74
2021/12/11 09:05:07;;;;;;;19.55;6.45;;;;;;;3.45;97.96;101274.25;5021587;28;20289;-72
2021/12/11 09:07:53;;;;;;;21.92;6.05;;;;;;;3.57;98.03;101284.53;5025040;28;20049;-74
2021/12/11 09:10:29;;;;;;;18.75;5.55;;;;;;;3.72;98.09;101295.66;5020613;28;20476;-74
2021/12/11 09:13:06;;;;;;;21.60;6.28;;;;;;;3.84;98.09;101304.19;5014925;28;20389;-74
2021/12/11 09:15:39;;;;;;;22.35;6.47;;;;;;;3.96;98.15;101312.72;5019693;28;20033;-74
2021/12/11 09:18:09;;;;;;;14.10;5.22;;;;;;;4.06;97.82;101323.09;5022985;28;20024;-75
2021/12/11 09:20:43;;;;;;;18.63;5.72;;;;;;;4.17;97.81;101321.81;5027606;28;20425;-74
2021/12/11 09:23:38;;;;;;;17.80;4.93;;;;;;;4.26;97.53;101316.94;5020873;28;20064;-72
2021/12/11 09:26:13;;;;;;;14.52;5.50;;;;;;;4.40;97.65;101329.88;5019286;28;20473;-75
2021/12/11 09:28:42;;;;;;;20.98;5.40;;;;;;;4.52;97.14;101340.19;5019250;28;20032;-75
2021/12/11 09:31:14;;;;;;;15.00;5.13;;;;;;;4.63;96.90;101342.44;5015935;28;20392;-74
2021/12/11 09:33:45;;;;;;;19.00;4.88;;;;;;;4.73;96.64;101342.94;5019286;28;20108;-72
2021/12/11 09:36:33;;;;;;;17.25;5.68;;;;;;;4.82;96.67;101351.53;5017493;28;20436;-73
2021/12/11 09:39:12;;;;;;;13.45;4.20;;;;;;;4.94;96.18;101349.28;5015818;28;20029;-72
2021/12/11 09:41:37;;;;;;;9.82;4.03;;;;;;;5.04;95.77;101362.34;5017694;28;20045;-75
2021/12/11 09:44:17;;;;;;;13.33;4.40;;;;;;;5.13;95.90;101363.78;5024071;28;20075;-75
2021/12/11 09:46:51;;;;;;;11.02;4.93;;;;;;;5.18;94.97;101374.38;5021925;28;20438;-74
2021/12/11 09:49:20;;;;;;;13.52;3.92;;;;;;;5.23;94.80;101384.03;5017185;28;20025;-75
2021/12/11 09:51:50;;;;;;;10.15;4.03;;;;;;;5.27;95.17;101392.84;5025630;28;20025;-77
2021/12/11 09:54:22;;;;;;;14.95;4.20;;;;;;;5.30;95.02;101390.03;5021420;28;20509;-75
2021/12/11 09:56:57;;;;;;;9.38;3.92;;;;;;;5.31;94.77;101389.06;5013734;28;20507;-75
2021/12/11 09:59:24;;;;;;;8.32;3.85;;;;;;;5.31;94.81;101400.75;5024457;28;20104;-74
2021/12/11 10:01:54;;;;;;;11.32;4.57;;;;;;;5.33;94.63;101395.31;5021092;28;20061;-75
2021/12/11 10:04:29;;;;;;;12.90;4.75;;;;;;;5.33;94.26;101398.00;5022021;28;20045;-74
2021/12/11 10:09:39;;;;;;;8.50;4.85;;;;;;;5.32;94.10;101401.66;5027333;28;20029;-75
2021/12/11 10:12:15;;;;;;;9.68;4.65;;;;;;;5.33;93.78;101411.50;5025704;28;20021;-75
2021/12/11 10:14:50;;;;;;;10.55;4.20;;;;;;;5.36;94.19;101417.66;5026229;28;20030;-75
2021/12/11 10:17:21;;;;;;;9.18;3.90;;;;;;;5.40;94.28;101420.19;5025586;28;20013;-73
2021/12/11 10:19:50;;;;;;;9.48;4.15;;;;;;;5.42;94.50;101424.59;5017140;28;20029;-77
2021/12/11 10:22:22;;;;;;;13.82;4.47;;;;;;;5.47;94.03;101430.69;5025594;28;20048;-75
2021/12/11 10:24:50;;;;;;;12.02;4.72;;;;;;;5.52;93.47;101427.78;5027381;28;20100;-76
2021/12/11 10:27:19;;;;;;;13.95;3.67;;;;;;;5.56;93.80;101429.41;5027095;28;20037;-76
2021/12/11 10:29:45;;;;;;;10.95;4.20;;;;;;;5.62;93.78;101426.44;5020375;28;20064;-72
2021/12/11 10:32:18;;;;;;;12.07;3.95;;;;;;;5.59;94.14;101437.38;5020842;28;20026;-76
2021/12/11 10:34:45;;;;;;;;;;;;;;;5.64;94.15;101446.13;5017032;28;20904;-76
2021/12/11 10:37:15;;;;;;;11.10;3.78;;;;;;;5.65;93.81;101433.56;5021239;28;19921;-76
2021/12/11 10:39:46;;;;;;;11.90;3.70;;;;;;;5.68;93.88;101445.06;5024660;28;20053;-76
2021/12/11 10:42:11;;;;;;;13.48;4.07;;;;;;;5.70;93.39;101439.63;5017987;28;20428;-74
2021/12/11 10:44:41;;;;;;;9.27;4.10;;;;;;;5.73;93.15;101445.75;5025988;28;20040;-77
2021/12/11 10:47:18;;;;;;;9.05;3.67;;;;;;;5.78;93.73;101453.66;5015921;28;20363;-76
2021/12/11 10:49:45;;;;;;;9.88;4.20;;;;;;;5.88;93.41;101458.63;5025342;28;20739;-79
2021/12/11 10:52:23;;;;;;;9.88;4.43;;;;;;;5.93;92.55;101461.16;5018501;28;20437;-75
2021/12/11 10:54:51;;;;;;;7.13;3.72;;;;;;;5.99;92.46;101458.19;5027927;28;20116;-72
2021/12/11 10:57:19;;;;;;;13.40;5.53;;;;;;;6.06;91.92;101466.88;5027881;28;20486;-76
2021/12/11 10:59:47;;;;;;;9.48;3.90;;;;;;;6.07;92.32;101464.13;5027937;28;20057;-75
2021/12/11 11:02:20;;;;;;;13.25;4.25;;;;;;;6.14;92.14;101472.81;5041084;28;20143;-75
2021/12/11 11:04:50;;;;;;;7.57;4.47;;;;;;;6.12;90.98;101470.22;5026975;28;20025;-75
2021/12/11 11:07:16;;;;;;;7.13;4.20;;;;;;;6.12;90.55;101480.13;5024988;28;20030;-76
2021/12/11 11:09:42;;;;;;;7.97;3.70;;;;;;;6.10;91.20;101485.59;5022957;28;20033;-75
2021/12/11 11:12:13;;;;;;;11.43;3.65;;;;;;;6.09;91.39;101486.53;5019107;28;20032;-75
2021/12/11 11:14:40;;;;;;;11.57;4.45;;;;;;;6.11;91.46;101492.75;5027327;28;20083;-75
2021/12/11 11:17:09;;;;;;;14.52;5.38;;;;;;;6.17;91.86;101501.53;5028129;28;20053;-73
2021/12/11 11:19:38;;;;;;;13.98;6.05;;;;;;;6.22;91.48;101503.09;5015457;28;20069;-72
2021/12/11 11:22:10;;;;;;;13.38;4.80;;;;;;;6.27;91.22;101513.69;5028800;28;20049;-75
2021/12/11 11:24:41;;;;;;;16.63;4.82;;;;;;;6.30;91.31;101506.34;5029867;28;20495;-75
2021/12/11 11:27:07;;;;;;;13.40;4.28;;;;;;;6.35;91.44;101519.66;5022334;28;20036;-75
2021/12/11 11:29:34;;;;;;;11.73;4.32;;;;;;;6.36;91.03;101511.47;5026338;28;20768;-75
2021/12/11 11:32:06;;;;;;;15.02;4.32;;;;;;;6.41;90.95;101522.06;5026008;28;20541;-74
2021/12/11 11:34:31;;;;;;;11.40;4.03;;;;;;;6.43;91.33;101517.47;5025765;28;20409;-74
2021/12/11 11:37:02;;;;;;;12.57;3.88;;;;;;;6.52;91.56;101525.16;5011752;28;20024;-75
2021/12/11 11:39:28;;;;;;;17.15;4.30;;;;;;;6.60;91.76;101525.72;5014208;28;20021;-72
2021/12/11 11:41:57;;;;;;;16.40;4.88;;;;;;;6.72;92.06;101537.81;5020035;28;20555;-76
2021/12/11 11:44:26;;;;;;;11.02;5.03;;;;;;;6.80;92.45;101532.91;5010087;28;20040;-75
2021/12/11 11:46:52;;;;;;;17.10;5.13;;;;;;;6.91;91.56;101537.84;5014221;28;20133;-72